createdAt,value
2018-08-19T00:34:47.483Z,23.80
2018-08-19T00:37:18.633Z,21.80
2018-08-19T00:39:49.580Z,21.20
2018-08-19T00:42:20.655Z,21.00
2018-08-19T00:44:51.577Z,20.90
2018-08-19T00:47:22.759Z,20.80
2018-08-19T00:50:00.722Z,20.80
2018-08-19T00:52:31.887Z,20.90
2018-08-19T00:55:02.800Z,20.80
2018-08-19T00:57:33.759Z,20.80
2018-08-19T01:00:05.033Z,20.80
2018-08-19T01:02:36.274Z,20.80
2018-08-19T01:05:07.272Z,20.70
2018-08-19T01:07:38.511Z,20.70
2018-08-19T01:10:09.755Z,20.70
2018-08-19T01:12:40.711Z,20.60
2018-08-19T01:15:14.990Z,20.60
2018-08-19T01:17:46.565Z,20.70
2018-08-19T01:20:23.201Z,20.70
2018-08-19T01:22:54.228Z,20.60
2018-08-19T01:25:25.325Z,20.60
2018-08-19T01:27:56.369Z,20.60
2018-08-19T01:30:27.937Z,20.50
2018-08-19T01:32:59.025Z,20.40
2018-08-19T01:35:38.091Z,20.40
2018-08-19T01:38:09.115Z,20.30
2018-08-19T01:40:40.103Z,20.20
2018-08-19T01:43:11.007Z,20.20
2018-08-19T01:45:42.040Z,20.20
2018-08-19T01:48:13.119Z,20.20
2018-08-19T01:50:44.122Z,20.10
2018-08-19T01:53:15.105Z,20.10
2018-08-19T01:55:45.981Z,20.00
2018-08-19T01:58:17.033Z,20.00
2018-08-19T02:00:48.056Z,20.00
2018-08-19T02:03:19.106Z,20.00
2018-08-19T02:05:50.118Z,19.90
2018-08-19T02:08:21.596Z,19.90
2018-08-19T02:10:52.544Z,19.80
2018-08-19T02:13:24.650Z,19.80
2018-08-19T02:15:55.711Z,19.80
2018-08-19T02:18:27.663Z,19.80
2018-08-19T02:21:00.742Z,19.80
2018-08-19T02:23:33.993Z,19.80
2018-08-19T02:26:05.019Z,19.80
2018-08-19T02:28:35.938Z,19.90
2018-08-19T02:31:07.031Z,19.90
2018-08-19T02:33:38.038Z,19.90
2018-08-19T02:36:09.552Z,19.80
2018-08-19T02:38:40.437Z,19.80
2018-08-19T02:41:11.446Z,19.70
2018-08-19T02:44:00.234Z,19.70
2018-08-19T02:46:31.304Z,19.60
2018-08-19T02:49:02.399Z,19.60
2018-08-19T02:51:33.368Z,19.60
2018-08-19T02:54:04.480Z,19.50
2018-08-19T02:56:35.462Z,19.50
2018-08-19T02:59:06.505Z,19.50
2018-08-19T03:01:37.654Z,19.40
2018-08-19T03:04:08.713Z,19.40
2018-08-19T03:06:39.593Z,19.40
2018-08-19T03:09:13.533Z,19.40
2018-08-19T03:11:44.488Z,19.30
2018-08-19T03:14:15.496Z,19.30
2018-08-19T03:16:46.434Z,19.30
2018-08-19T03:19:17.526Z,19.30
2018-08-19T03:21:48.499Z,19.30
2018-08-19T03:24:19.458Z,19.30
2018-08-19T03:26:50.503Z,19.30
2018-08-19T03:29:21.483Z,19.20
2018-08-19T03:31:56.680Z,19.20
2018-08-19T03:34:28.210Z,19.50
2018-08-19T03:37:01.058Z,19.50
2018-08-19T03:39:32.034Z,19.60
2018-08-19T03:42:03.171Z,19.50
2018-08-19T03:44:34.858Z,19.50
2018-08-19T03:47:09.852Z,19.50
2018-08-19T03:49:40.836Z,19.40
2018-08-19T03:52:13.806Z,19.50
2018-08-19T03:54:46.194Z,19.60
2018-08-19T03:57:21.440Z,19.60
2018-08-19T03:59:52.327Z,19.50
2018-08-19T04:02:23.311Z,19.50
2018-08-19T04:04:54.284Z,19.40
2018-08-19T08:05:08.111Z,20.40
2018-08-19T08:07:43.176Z,40.50
2018-08-19T08:10:14.154Z,39.80
2018-08-19T08:12:45.694Z,39.60
2018-08-19T08:15:18.447Z,40.40
2018-08-19T08:17:49.429Z,40.50
2018-08-19T08:20:20.364Z,41.60
2018-08-19T08:22:51.429Z,42.00
2018-08-19T08:25:22.533Z,42.50
2018-08-19T08:27:53.620Z,42.70
2018-08-19T08:30:24.784Z,43.90
2018-08-19T08:32:55.754Z,44.30
2018-08-19T08:35:26.760Z,44.90
2018-08-19T08:37:57.740Z,45.00
2018-08-19T08:40:28.829Z,45.10
2018-08-19T08:42:59.857Z,44.00
2018-08-19T08:45:34.839Z,43.30
2018-08-19T08:48:05.958Z,42.90
2018-08-19T08:50:36.950Z,43.20
2018-08-19T08:53:10.349Z,43.00
2018-08-19T08:55:41.419Z,42.60
2018-08-19T08:58:13.846Z,42.80
2018-08-19T09:00:47.177Z,43.20
2018-08-19T09:03:18.942Z,43.20
2018-08-19T09:05:51.482Z,43.50
2018-08-19T09:08:22.455Z,43.50
2018-08-19T09:10:53.339Z,43.30
2018-08-19T09:13:24.261Z,43.00
2018-08-19T09:15:57.975Z,43.10
2018-08-19T09:18:28.931Z,43.10
2018-08-19T09:20:59.884Z,42.90
2018-08-19T09:23:30.937Z,42.00
2018-08-19T09:26:06.725Z,41.80
2018-08-19T09:28:39.498Z,41.50
2018-08-19T09:34:01.669Z,40.70
2018-08-19T09:36:32.662Z,41.10
2018-08-19T09:39:03.947Z,41.70
2018-08-19T09:41:37.354Z,41.90
2018-08-19T09:44:08.386Z,41.50
2018-08-19T09:46:39.398Z,41.60
2018-08-19T09:49:10.361Z,41.80
2018-08-19T09:51:41.323Z,41.30
2018-08-19T09:54:15.104Z,41.10
2018-08-19T09:56:47.025Z,40.80
2018-08-19T09:59:18.087Z,40.40
2018-08-19T10:01:49.033Z,40.60
2018-08-19T10:04:22.282Z,40.70
2018-08-19T10:07:17.540Z,40.20
2018-08-19T10:09:51.991Z,40.20
2018-08-19T10:12:30.682Z,40.70
2018-08-19T10:15:02.384Z,40.60
2018-08-19T10:17:33.559Z,40.70
2018-08-19T10:20:04.776Z,40.70
2018-08-19T10:22:41.715Z,40.10
2018-08-19T10:25:18.722Z,39.80
2018-08-19T10:27:51.271Z,39.60
2018-08-19T10:47:56.400Z,40.80
2018-08-19T10:50:29.594Z,40.10
2018-08-19T10:53:00.648Z,39.80
2018-08-19T10:55:31.749Z,39.70
2018-08-19T10:58:02.693Z,39.50
2018-08-19T11:00:33.697Z,39.60
2018-08-19T11:03:11.632Z,39.30
2018-08-19T11:05:43.862Z,39.50
2018-08-19T11:08:15.246Z,39.40
2018-08-19T11:10:46.177Z,39.30
2018-08-19T11:13:24.446Z,39.40
2018-08-19T11:15:56.592Z,39.30
2018-08-19T11:18:40.365Z,39.40
2018-08-19T11:21:15.987Z,39.40
2018-08-19T11:23:47.827Z,39.30
2018-08-19T11:26:18.914Z,39.20
2018-08-19T11:28:55.848Z,38.90
2018-08-19T11:31:32.041Z,39.00
2018-08-19T11:34:04.829Z,39.30
2018-08-19T11:36:40.871Z,38.90
2018-08-19T11:39:14.520Z,38.40
2018-08-19T11:41:45.470Z,38.00
2018-08-19T11:44:17.781Z,38.00
2018-08-19T11:46:48.780Z,38.00
2018-08-19T11:49:20.595Z,37.60
2018-08-19T11:52:10.067Z,37.30
2018-08-19T11:54:41.141Z,37.50
2018-08-19T11:57:13.206Z,38.10
2018-08-19T11:59:45.520Z,38.40
2018-08-19T12:02:21.150Z,38.70
2018-08-19T12:04:52.099Z,38.60
2018-08-19T12:07:22.997Z,38.70
2018-08-19T12:10:00.847Z,39.20
2018-08-19T12:12:47.051Z,38.80
2018-08-19T12:15:18.196Z,38.80
2018-08-19T12:17:49.182Z,39.10
2018-08-19T12:20:38.966Z,39.30
2018-08-19T12:23:10.657Z,39.20
2018-08-19T12:25:41.704Z,39.30
2018-08-19T12:28:12.824Z,39.30
2018-08-19T12:30:47.272Z,39.30
2018-08-19T12:33:27.020Z,39.60
2018-08-19T12:35:58.701Z,39.50
2018-08-19T12:38:31.662Z,39.30
2018-08-19T12:41:05.282Z,39.20
2018-08-19T12:43:36.694Z,39.10
2018-08-19T12:46:07.695Z,39.30
2018-08-19T12:48:38.547Z,39.50
2018-08-19T12:51:09.419Z,39.60
2018-08-19T12:53:41.175Z,39.30
2018-08-19T12:56:12.832Z,39.20
2018-08-19T12:58:45.155Z,39.30
2018-08-19T13:01:16.141Z,39.10
2018-08-19T13:03:47.187Z,38.70
2018-08-19T13:06:18.779Z,38.40
2018-08-19T13:08:51.140Z,37.70
2018-08-19T13:11:23.807Z,37.30
2018-08-19T13:13:54.836Z,37.00
2018-08-19T13:16:25.764Z,36.70
2018-08-19T13:18:56.812Z,36.50
2018-08-19T13:21:28.386Z,36.30
2018-08-19T13:23:59.334Z,35.90
2018-08-19T13:26:30.570Z,36.00
2018-08-19T13:29:01.794Z,36.00
2018-08-19T13:31:34.865Z,36.00
2018-08-19T13:34:05.846Z,35.90
2018-08-19T13:36:36.797Z,36.00
2018-08-19T13:39:09.919Z,36.00
2018-08-19T13:41:40.935Z,36.30
2018-08-19T13:44:12.107Z,36.40
2018-08-19T13:46:43.221Z,36.40
2018-08-19T13:49:15.625Z,36.60
2018-08-19T13:51:46.814Z,36.60
2018-08-19T13:54:17.996Z,36.80
2018-08-19T13:56:49.102Z,36.90
2018-08-19T13:59:20.109Z,36.70
2018-08-19T14:01:51.215Z,36.40
2018-08-19T14:04:22.211Z,36.00
2018-08-19T14:06:53.327Z,35.80
2018-08-19T14:09:24.387Z,35.50
2018-08-19T14:11:55.787Z,35.20
2018-08-19T14:14:26.677Z,34.90
2018-08-19T14:16:57.884Z,34.80
2018-08-19T14:19:28.972Z,34.60
2018-08-19T14:22:02.369Z,34.50
2018-08-19T14:24:44.818Z,34.20
2018-08-19T14:27:19.431Z,34.10
2018-08-19T14:29:51.557Z,34.10
2018-08-19T14:32:51.737Z,34.20
2018-08-19T14:35:30.204Z,34.10
2018-08-19T14:38:02.097Z,33.80
2018-08-19T14:40:34.591Z,33.60
2018-08-19T14:43:15.434Z,33.60
2018-08-19T14:45:46.972Z,33.70
2018-08-19T14:48:18.234Z,33.70
2018-08-19T14:50:49.713Z,33.60
2018-08-19T14:53:20.893Z,33.50
2018-08-19T14:55:57.051Z,33.40
2018-08-19T14:58:28.272Z,33.30
2018-08-19T15:01:00.239Z,33.30
2018-08-19T15:03:31.207Z,33.30
2018-08-19T15:06:05.455Z,33.20
2018-08-19T15:08:37.539Z,33.20
2018-08-19T15:11:08.708Z,33.10
2018-08-19T15:13:40.190Z,33.30
2018-08-19T15:16:11.160Z,33.30
2018-08-19T15:18:46.227Z,33.30
2018-08-19T15:21:19.886Z,33.30
2018-08-19T15:23:52.389Z,33.30
2018-08-19T15:26:23.800Z,33.30
2018-08-19T17:03:38.255Z,32.80
2018-08-19T17:06:12.401Z,31.30
2018-08-19T17:08:45.218Z,31.20
2018-08-19T17:11:16.850Z,31.10
2018-08-19T17:13:48.150Z,31.10
2018-08-19T17:16:19.721Z,31.00
2018-08-19T17:18:52.736Z,31.00
2018-08-19T17:21:24.187Z,31.00
2018-08-19T17:23:55.533Z,30.90
2018-08-19T17:26:26.837Z,30.80
2018-08-19T17:29:05.848Z,30.70
2018-08-19T17:31:37.278Z,30.60
2018-08-19T17:34:13.745Z,30.60
2018-08-19T17:36:45.410Z,30.50
2018-08-19T17:39:22.126Z,30.40
2018-08-19T17:41:54.144Z,30.30
2018-08-19T17:44:25.342Z,30.30
2018-08-19T17:46:57.781Z,30.10
2018-08-19T17:49:32.776Z,30.10
2018-08-19T17:52:04.829Z,30.00
2018-08-19T17:54:36.430Z,29.90
2018-08-19T17:57:07.906Z,29.80
2018-08-19T17:59:41.856Z,29.70
2018-08-19T18:02:13.939Z,29.70
2018-08-19T18:04:48.004Z,29.70
2018-08-19T18:07:27.693Z,29.50
2018-08-19T18:10:01.398Z,29.50
2018-08-19T18:12:35.389Z,29.50
2018-08-19T18:15:17.411Z,29.40
2018-08-19T18:18:03.244Z,29.30
2018-08-19T18:20:45.518Z,29.30
2018-08-19T18:23:40.209Z,29.20
2018-08-19T18:26:55.997Z,29.10
2018-08-19T18:30:02.603Z,29.00
2018-08-19T19:38:59.883Z,28.60
2018-08-19T19:41:43.113Z,26.60
2018-08-19T19:44:50.543Z,26.30
2018-08-19T19:47:27.525Z,26.20
2018-08-19T19:49:59.586Z,26.20
2018-08-19T19:53:00.906Z,26.10
2018-08-19T19:55:36.481Z,26.00
2018-08-19T19:58:09.684Z,26.00
2018-08-19T20:00:57.019Z,25.90
2018-08-19T20:03:29.351Z,25.90
2018-08-19T20:06:00.160Z,25.80
2018-08-19T20:08:31.042Z,25.60
2018-08-19T20:11:01.860Z,25.50
2018-08-19T20:13:33.723Z,25.40
2018-08-19T20:16:07.032Z,25.40
2018-08-19T20:21:30.100Z,25.20
2018-08-19T20:24:03.159Z,25.10
2018-08-19T20:29:37.940Z,25.20
2018-08-19T20:32:09.134Z,25.20
2018-08-19T20:34:39.922Z,25.10
2018-08-19T20:37:10.846Z,25.10
2018-08-19T20:39:41.842Z,25.00
2018-08-19T20:42:12.797Z,24.90
2018-08-19T20:44:43.712Z,24.80
2018-08-19T20:47:14.911Z,24.80
2018-08-19T20:49:50.279Z,24.80
2018-08-19T20:52:39.497Z,24.80
2018-08-19T20:55:11.094Z,24.80
2018-08-19T20:57:42.058Z,24.70
2018-08-19T21:00:13.552Z,24.60
2018-08-19T21:02:44.394Z,24.60
2018-08-19T21:05:15.225Z,24.70
2018-08-19T21:07:46.269Z,24.60
2018-08-19T21:10:17.148Z,24.50
2018-08-19T21:12:47.931Z,24.50
2018-08-19T21:15:23.780Z,24.30
2018-08-19T21:17:54.632Z,24.30
2018-08-19T21:20:25.480Z,24.30
2018-08-19T21:22:56.299Z,24.20
2018-08-19T21:25:27.401Z,24.10
2018-08-19T21:28:01.702Z,24.00
2018-08-19T21:30:40.858Z,24.10
2018-08-19T21:33:11.837Z,24.10
2018-08-19T21:35:47.997Z,24.10
2018-08-19T21:38:18.966Z,24.10
2018-08-19T21:40:53.037Z,24.00
2018-08-19T21:43:33.328Z,24.10
2018-08-19T21:46:04.401Z,24.00
2018-08-19T21:48:35.450Z,23.90
2018-08-19T21:51:06.850Z,23.90
2018-08-19T21:53:38.467Z,23.90
2018-08-19T21:56:09.672Z,23.90
2018-08-19T21:58:40.996Z,23.90
2018-08-19T22:01:17.090Z,23.90
2018-08-19T22:03:49.149Z,23.80
2018-08-19T22:06:20.130Z,23.70
2018-08-19T22:08:51.369Z,23.70
2018-08-19T22:11:22.555Z,23.70
2018-08-19T22:13:53.603Z,23.60
2018-08-19T22:16:24.752Z,23.60
2018-08-19T22:18:55.881Z,23.60
2018-08-19T22:21:27.919Z,23.60
2018-08-19T22:23:59.197Z,23.50
2018-08-19T22:26:31.003Z,23.50
2018-08-19T22:29:15.896Z,23.40
2018-08-19T22:31:47.218Z,23.40
2018-08-19T22:34:18.373Z,23.40
2018-08-19T22:36:49.572Z,23.30
2018-08-19T22:39:21.304Z,23.30
2018-08-19T22:41:53.167Z,23.30
2018-08-19T22:44:24.415Z,23.30
2018-08-19T22:46:55.597Z,23.30
2018-08-19T22:49:29.516Z,23.20
2018-08-19T22:52:17.801Z,23.20
2018-08-19T22:54:51.093Z,23.10
2018-08-19T22:57:23.512Z,23.10
2018-08-19T22:59:56.233Z,23.00
2018-08-19T23:02:27.899Z,22.90
2018-08-19T23:05:02.596Z,22.80
2018-08-19T23:07:38.517Z,22.70
2018-08-19T23:10:14.780Z,22.70
2018-08-19T23:12:46.342Z,22.70
2018-08-19T23:15:34.202Z,22.60
2018-08-19T23:18:09.900Z,22.60
2018-08-19T23:20:42.545Z,22.40
2018-08-19T23:23:13.712Z,22.40
2018-08-19T23:25:46.137Z,22.30
2018-08-19T23:28:18.023Z,22.20
2018-08-19T23:30:49.586Z,22.20
2018-08-19T23:33:20.846Z,22.20
2018-08-19T23:35:52.246Z,22.20
2018-08-19T23:38:25.306Z,22.10
2018-08-19T23:40:56.547Z,22.10
2018-08-19T23:43:27.919Z,22.10
2018-08-19T23:45:59.514Z,22.00
2018-08-19T23:48:30.390Z,22.00
2018-08-19T23:51:01.211Z,21.90
2018-08-19T23:53:32.023Z,21.90
2018-08-19T23:56:02.905Z,21.90
2018-08-19T23:58:33.815Z,21.90
